createdAt,value
2018-08-16T00:01:13.010Z,6.83
2018-08-16T00:03:43.765Z,7.10
2018-08-16T00:06:14.609Z,6.10
2018-08-16T00:08:45.473Z,7.00
2018-08-16T00:11:16.386Z,6.90
2018-08-16T00:13:47.086Z,6.37
2018-08-16T00:16:17.937Z,6.67
2018-08-16T00:18:48.772Z,6.17
2018-08-16T00:21:19.570Z,7.10
2018-08-16T00:23:50.333Z,6.87
2018-08-16T00:26:21.047Z,6.83
2018-08-16T00:28:51.799Z,6.53
2018-08-16T00:31:22.524Z,6.40
2018-08-16T00:33:53.427Z,6.77
2018-08-16T00:36:24.101Z,6.73
2018-08-16T00:38:54.813Z,7.20
2018-08-16T00:41:25.608Z,6.80
2018-08-16T00:43:56.368Z,6.50
2018-08-16T00:46:27.081Z,6.50
2018-08-16T00:48:57.846Z,6.73
2018-08-16T00:51:28.628Z,7.03
2018-08-16T00:53:59.415Z,6.97
2018-08-16T00:56:30.151Z,6.83
2018-08-16T00:59:00.925Z,7.80
2018-08-16T01:01:31.839Z,6.60
2018-08-16T01:04:02.604Z,6.60
2018-08-16T01:06:33.365Z,6.83
2018-08-16T01:09:05.225Z,6.57
2018-08-16T01:11:35.931Z,7.23
2018-08-16T01:14:08.373Z,7.37
2018-08-16T01:16:39.211Z,7.07
2018-08-16T01:19:10.030Z,7.10
2018-08-16T01:21:40.870Z,7.53
2018-08-16T01:24:11.629Z,7.47
2018-08-16T01:26:42.401Z,8.00
2018-08-16T01:29:13.212Z,7.70
2018-08-16T01:31:44.282Z,8.10
2018-08-16T01:34:15.108Z,7.23
2018-08-16T01:36:45.822Z,7.33
2018-08-16T01:39:16.619Z,7.30
2018-08-16T01:41:47.272Z,7.37
2018-08-16T01:44:18.159Z,6.87
2018-08-16T01:46:48.833Z,6.90
2018-08-16T01:49:30.047Z,7.27
2018-08-16T01:52:01.094Z,7.00
2018-08-16T01:54:32.057Z,6.33
2018-08-16T01:57:03.444Z,7.03
2018-08-16T01:59:34.151Z,7.80
2018-08-16T02:02:04.998Z,8.77
2018-08-16T02:04:35.764Z,7.23
2018-08-16T02:07:06.569Z,7.83
2018-08-16T02:09:37.411Z,7.70
2018-08-16T02:12:08.450Z,7.90
2018-08-16T02:14:39.181Z,8.17
2018-08-16T02:17:09.921Z,8.00
2018-08-16T02:19:40.707Z,7.70
2018-08-16T02:22:11.489Z,8.80
2018-08-16T02:24:42.176Z,8.73
2018-08-16T02:27:12.979Z,8.37
2018-08-16T02:29:43.733Z,8.60
2018-08-16T02:32:14.493Z,8.33
2018-08-16T02:34:45.266Z,8.87
2018-08-16T02:37:16.156Z,9.00
2018-08-16T02:39:46.888Z,9.13
2018-08-16T02:42:17.878Z,7.87
2018-08-16T02:44:48.655Z,8.87
2018-08-16T02:47:19.561Z,8.80
2018-08-16T02:49:50.298Z,8.50
2018-08-16T02:52:21.137Z,8.10
2018-08-16T02:54:51.898Z,8.00
2018-08-16T02:57:22.676Z,8.43
2018-08-16T02:59:53.400Z,7.80
2018-08-16T03:02:24.147Z,8.80
2018-08-16T03:04:54.945Z,7.90
2018-08-16T03:07:25.766Z,8.47
2018-08-16T03:09:56.462Z,8.70
2018-08-16T03:12:27.216Z,9.03
2018-08-16T03:14:57.895Z,8.90
2018-08-16T03:17:28.661Z,8.83
2018-08-16T03:19:59.344Z,9.27
2018-08-16T03:22:30.032Z,9.57
2018-08-16T03:25:00.748Z,8.93
2018-08-16T03:27:31.455Z,9.50
2018-08-16T03:30:02.219Z,9.50
2018-08-16T03:32:32.922Z,9.40
2018-08-16T03:35:03.740Z,9.33
2018-08-16T03:37:34.492Z,9.80
2018-08-16T03:40:06.024Z,9.83
2018-08-16T03:42:36.888Z,9.63
2018-08-16T03:45:08.364Z,9.47
2018-08-16T03:47:39.276Z,10.57
2018-08-16T03:50:10.162Z,9.13
2018-08-16T03:52:40.873Z,9.63
2018-08-16T03:55:11.602Z,9.80
2018-08-16T03:57:42.415Z,10.13
2018-08-16T04:00:13.143Z,9.93
2018-08-16T04:02:43.832Z,9.63
2018-08-16T04:05:14.559Z,9.77
2018-08-16T04:07:45.309Z,9.50
2018-08-16T04:10:16.129Z,9.30
2018-08-16T04:12:46.949Z,9.27
2018-08-16T04:15:17.669Z,9.63
2018-08-16T04:17:48.467Z,10.03
2018-08-16T04:20:19.217Z,9.47
2018-08-16T04:22:50.021Z,9.10
2018-08-16T04:25:20.807Z,10.60
2018-08-16T04:27:51.663Z,10.27
2018-08-16T04:30:22.503Z,10.27
2018-08-16T04:32:53.248Z,10.27
2018-08-16T04:35:24.047Z,11.00
2018-08-16T04:37:54.882Z,9.73
2018-08-16T04:40:25.725Z,10.30
2018-08-16T04:42:56.491Z,10.00
2018-08-16T04:45:27.326Z,10.10
2018-08-16T04:47:58.112Z,10.53
2018-08-16T04:50:28.923Z,10.73
2018-08-16T04:52:59.660Z,9.57
2018-08-16T04:55:30.344Z,11.10
2018-08-16T04:58:01.031Z,10.50
2018-08-16T05:00:31.758Z,10.47
2018-08-16T05:03:02.436Z,10.93
2018-08-16T05:05:33.090Z,10.57
2018-08-16T05:08:03.940Z,10.10
2018-08-16T05:10:34.723Z,11.20
2018-08-16T05:13:05.553Z,10.33
2018-08-16T05:15:36.371Z,11.20
2018-08-16T05:18:07.517Z,10.80
2018-08-16T05:20:38.243Z,10.83
2018-08-16T05:23:09.032Z,11.77
2018-08-16T05:25:39.791Z,10.80
2018-08-16T05:28:10.653Z,10.97
2018-08-16T05:30:41.404Z,10.63
2018-08-16T05:33:12.157Z,10.47
2018-08-16T05:35:42.933Z,10.17
2018-08-16T05:38:13.672Z,10.07
2018-08-16T05:40:44.478Z,9.93
2018-08-16T05:43:15.374Z,10.20
2018-08-16T05:45:46.148Z,9.83
2018-08-16T05:48:16.964Z,10.27
2018-08-16T05:50:47.950Z,9.47
2018-08-16T05:53:18.782Z,9.40
2018-08-16T05:55:49.675Z,9.47
2018-08-16T05:58:20.515Z,9.20
2018-08-16T06:00:51.321Z,9.47
2018-08-16T06:03:22.243Z,9.57
2018-08-16T06:05:53.076Z,10.63
2018-08-16T06:08:23.955Z,10.70
2018-08-16T06:10:54.848Z,10.23
2018-08-16T06:13:25.873Z,10.47
2018-08-16T06:15:56.720Z,10.43
2018-08-16T06:18:27.463Z,9.63
2018-08-16T06:20:58.164Z,10.33
2018-08-16T06:23:28.832Z,10.10
2018-08-16T06:25:59.549Z,9.73
2018-08-16T06:28:30.354Z,10.20
2018-08-16T06:31:01.169Z,9.67
2018-08-16T06:33:32.206Z,8.70
2018-08-16T06:36:02.872Z,8.37
2018-08-16T06:38:33.664Z,8.87
2018-08-16T06:41:04.430Z,9.30
2018-08-16T06:43:35.164Z,8.83
2018-08-16T06:46:05.894Z,9.10
2018-08-16T06:48:36.599Z,8.97
2018-08-16T06:51:07.372Z,9.80
2018-08-16T06:53:38.100Z,10.10
2018-08-16T06:56:08.843Z,9.60
2018-08-16T06:58:39.591Z,9.70
2018-08-16T07:01:10.547Z,9.67
2018-08-16T07:03:41.322Z,8.77
2018-08-16T07:06:12.104Z,9.23
2018-08-16T07:08:42.890Z,9.90
2018-08-16T07:11:13.600Z,10.47
2018-08-16T07:13:44.253Z,9.67
2018-08-16T07:16:14.940Z,8.93
2018-08-16T07:18:45.725Z,8.43
2018-08-16T07:21:16.438Z,9.20
2018-08-16T07:23:47.040Z,8.80
2018-08-16T07:26:23.486Z,8.40
2018-08-16T07:28:54.089Z,8.70
2018-08-16T07:31:24.865Z,8.07
2018-08-16T07:33:55.549Z,8.53
2018-08-16T07:36:26.317Z,9.83
2018-08-16T07:38:57.115Z,8.10
2018-08-16T07:41:28.352Z,8.10
2018-08-16T07:44:00.169Z,7.80
2018-08-16T07:46:30.901Z,7.93
2018-08-16T07:49:01.541Z,8.40
2018-08-16T07:51:32.409Z,7.67
2018-08-16T07:54:02.920Z,7.53
2018-08-16T07:56:33.529Z,7.50
2018-08-16T07:59:04.368Z,7.33
2018-08-16T08:01:35.075Z,6.50
2018-08-16T08:04:05.875Z,6.23
2018-08-16T08:06:39.522Z,6.23
2018-08-16T08:09:10.934Z,6.47
2018-08-16T08:11:41.475Z,5.90
2018-08-16T08:14:12.184Z,5.83
2018-08-16T08:16:43.101Z,6.83
2018-08-16T08:19:13.768Z,6.63
2018-08-16T08:21:44.490Z,7.17
2018-08-16T08:24:15.231Z,7.20
2018-08-16T08:26:45.938Z,6.80
2018-08-16T08:29:16.581Z,7.73
2018-08-16T08:31:47.524Z,7.77
2018-08-16T08:34:18.280Z,7.77
2018-08-16T08:37:05.811Z,7.63
2018-08-16T08:39:36.525Z,7.70
2018-08-16T08:42:07.180Z,7.43
2018-08-16T08:44:37.967Z,6.70
2018-08-16T08:47:08.726Z,6.93
2018-08-16T08:49:39.429Z,6.40
2018-08-16T08:52:10.133Z,6.90
2018-08-16T08:54:58.166Z,7.07
2018-08-16T08:57:45.563Z,7.10
2018-08-16T09:00:16.348Z,6.30
2018-08-16T09:02:47.073Z,6.33
2018-08-16T09:05:17.760Z,6.87
2018-08-16T09:07:48.445Z,6.80
2018-08-16T09:11:05.435Z,6.80
2018-08-16T09:13:53.901Z,6.63
2018-08-16T09:16:31.036Z,6.87
2018-08-16T09:19:01.965Z,6.50
2018-08-16T09:21:33.307Z,7.90
2018-08-16T09:24:04.135Z,7.07
2018-08-16T09:26:43.111Z,6.93
2018-08-16T09:30:40.087Z,7.60
2018-08-16T09:33:27.476Z,7.10
2018-08-16T09:35:58.166Z,6.97
2018-08-16T09:38:28.884Z,7.50
2018-08-16T09:40:59.638Z,7.37
2018-08-16T09:43:30.335Z,6.80
2018-08-16T09:47:16.543Z,6.23
2018-08-16T09:49:50.318Z,6.97
2018-08-16T09:52:21.872Z,7.30
2018-08-16T09:54:52.637Z,6.27
2018-08-16T09:57:23.365Z,6.20
2018-08-16T09:59:54.024Z,6.13
2018-08-16T10:02:24.717Z,7.40
2018-08-16T10:04:55.391Z,7.30
2018-08-16T10:07:26.079Z,6.60
2018-08-16T10:09:56.718Z,5.90
2018-08-16T10:12:27.522Z,7.53
2018-08-16T10:14:58.329Z,6.50
2018-08-16T10:17:29.132Z,7.23
2018-08-16T10:19:59.836Z,6.60
2018-08-16T10:22:30.492Z,6.57
2018-08-16T10:25:01.239Z,7.00
2018-08-16T10:27:32.008Z,8.03
2018-08-16T10:30:02.749Z,7.40
2018-08-16T10:32:33.506Z,6.60
2018-08-16T10:35:04.761Z,6.90
2018-08-16T10:37:36.037Z,6.43
2018-08-16T10:40:06.810Z,7.20
2018-08-16T10:42:38.768Z,7.50
2018-08-16T10:45:09.422Z,6.57
2018-08-16T10:47:40.190Z,7.20
2018-08-16T10:50:11.068Z,6.60
2018-08-16T10:52:41.962Z,7.30
2018-08-16T10:55:12.717Z,7.70
2018-08-16T10:57:43.473Z,7.47
2018-08-16T11:00:14.308Z,6.27
2018-08-16T11:02:45.136Z,7.70
2018-08-16T11:05:16.086Z,6.07
2018-08-16T11:07:46.844Z,7.60
2018-08-16T11:10:17.667Z,6.27
2018-08-16T11:12:48.351Z,6.83
2018-08-16T11:15:19.164Z,7.43
2018-08-16T11:17:50.002Z,7.23
2018-08-16T11:20:20.702Z,7.43
2018-08-16T11:22:51.384Z,6.70
2018-08-16T11:25:22.186Z,6.47
2018-08-16T11:27:53.892Z,6.20
2018-08-16T11:30:24.648Z,6.30
2018-08-16T11:32:55.709Z,7.10
2018-08-16T11:35:26.432Z,6.27
2018-08-16T11:37:57.721Z,5.80
2018-08-16T11:40:28.356Z,6.50
2018-08-16T11:43:00.021Z,7.20
2018-08-16T11:45:30.729Z,6.30
2018-08-16T11:48:01.424Z,5.77
2018-08-16T11:50:32.191Z,6.90
2018-08-16T11:53:02.928Z,6.43
2018-08-16T11:55:33.605Z,6.53
2018-08-16T11:58:04.277Z,6.37
2018-08-16T12:00:35.019Z,6.30
2018-08-16T12:03:06.207Z,5.90
2018-08-16T12:05:36.924Z,5.83
2018-08-16T12:08:07.720Z,6.20
2018-08-16T12:10:38.524Z,5.90
2018-08-16T12:13:09.344Z,6.57
2018-08-16T12:15:40.061Z,5.57
2018-08-16T12:18:11.085Z,5.83
2018-08-16T12:20:41.808Z,7.07
2018-08-16T12:23:13.514Z,6.30
2018-08-16T12:25:44.289Z,6.13
2018-08-16T12:28:15.711Z,6.50
2018-08-16T12:30:46.725Z,6.87
2018-08-16T12:33:17.475Z,6.13
2018-08-16T12:35:48.244Z,6.50
2018-08-16T12:38:18.909Z,6.93
2018-08-16T12:40:52.341Z,4.83
2018-08-16T12:43:26.568Z,6.03
2018-08-16T12:45:59.099Z,6.23
2018-08-16T12:48:29.881Z,5.33
2018-08-16T12:51:00.568Z,5.30
2018-08-16T12:53:31.390Z,5.57
2018-08-16T12:56:02.132Z,5.83
2018-08-16T12:58:32.989Z,5.67
2018-08-16T13:01:03.711Z,4.97
2018-08-16T13:03:34.415Z,4.70
2018-08-16T13:06:05.257Z,5.00
2018-08-16T13:08:35.988Z,5.33
2018-08-16T13:11:07.300Z,6.13
2018-08-16T13:13:38.103Z,6.00
2018-08-16T13:16:08.821Z,6.33
2018-08-16T13:18:39.640Z,5.57
2018-08-16T13:21:10.773Z,5.83
2018-08-16T13:23:42.391Z,5.57
2018-08-16T13:26:15.418Z,5.53
2018-08-16T13:28:46.164Z,6.30
2018-08-16T13:31:17.530Z,5.93
2018-08-16T13:33:48.388Z,5.93
2018-08-16T13:36:19.105Z,6.17
2018-08-16T13:38:49.926Z,5.80
2018-08-16T13:41:21.446Z,6.00
2018-08-16T13:43:51.368Z,6.07
2018-08-16T13:46:22.156Z,5.40
2018-08-16T13:48:52.992Z,5.77
2018-08-16T13:51:23.652Z,6.33
2018-08-16T13:53:54.401Z,5.90
2018-08-16T13:56:25.164Z,5.87
2018-08-16T13:58:56.012Z,5.73
2018-08-16T14:01:26.729Z,6.53
2018-08-16T14:03:57.635Z,5.60
2018-08-16T14:06:28.382Z,6.40
2018-08-16T14:08:59.045Z,5.80
2018-08-16T14:11:29.698Z,7.07
2018-08-16T14:14:19.427Z,5.93
2018-08-16T14:16:55.431Z,6.07
2018-08-16T14:19:26.172Z,6.07
2018-08-16T14:21:56.934Z,6.00
2018-08-16T14:24:27.675Z,6.60
2018-08-16T14:26:58.404Z,6.20
2018-08-16T14:29:29.345Z,6.10
2018-08-16T14:32:00.209Z,6.50
2018-08-16T14:34:30.949Z,6.03
2018-08-16T14:37:01.672Z,6.57
2018-08-16T14:39:32.496Z,7.77
2018-08-16T14:42:03.374Z,7.13
2018-08-16T14:44:34.226Z,6.53
2018-08-16T14:47:05.149Z,7.03
2018-08-16T14:49:35.865Z,6.33
2018-08-16T14:52:06.711Z,6.40
2018-08-16T14:54:37.416Z,7.13
2018-08-16T14:57:08.857Z,7.17
2018-08-16T14:59:39.613Z,6.60
2018-08-16T15:02:10.357Z,7.23
2018-08-16T15:04:41.064Z,6.60
2018-08-16T15:07:11.761Z,6.53
2018-08-16T15:09:42.435Z,7.10
2018-08-16T15:12:13.266Z,7.03
2018-08-16T15:14:44.269Z,7.07
2018-08-16T15:17:16.289Z,6.57
2018-08-16T15:19:47.070Z,6.73
2018-08-16T15:22:18.448Z,6.10
2018-08-16T15:24:49.304Z,6.33
2018-08-16T15:27:19.957Z,6.63
2018-08-16T15:29:50.833Z,6.20
2018-08-16T15:32:21.554Z,7.07
2018-08-16T15:34:52.790Z,7.60
2018-08-16T15:37:23.864Z,7.00
2018-08-16T15:39:54.591Z,6.93
2018-08-16T15:42:26.230Z,6.83
2018-08-16T15:44:56.934Z,7.77
2018-08-16T15:47:27.698Z,7.30
2018-08-16T15:49:58.459Z,6.97
2018-08-16T15:52:29.151Z,6.97
2018-08-16T15:54:59.797Z,7.40
2018-08-16T15:57:30.505Z,7.40
2018-08-16T16:00:02.058Z,7.57
2018-08-16T16:02:34.315Z,7.23
2018-08-16T16:05:05.079Z,6.93
2018-08-16T16:07:35.825Z,7.47
2018-08-16T16:10:07.208Z,8.20
2018-08-16T16:12:37.911Z,7.33
2018-08-16T16:15:10.469Z,7.40
2018-08-16T16:17:41.188Z,7.90
2018-08-16T16:20:11.900Z,7.07
2018-08-16T16:22:42.618Z,6.97
2018-08-16T16:25:13.287Z,7.50
2018-08-16T16:27:43.973Z,7.97
2018-08-16T16:30:15.751Z,7.90
2018-08-16T16:32:46.453Z,7.40
2018-08-16T16:35:17.339Z,7.10
2018-08-16T16:37:48.018Z,7.57
2018-08-16T16:40:18.730Z,8.57
2018-08-16T16:42:49.513Z,8.57
2018-08-16T16:45:20.189Z,8.57
2018-08-16T16:47:50.959Z,9.27
2018-08-16T16:50:21.654Z,7.97
2018-08-16T16:52:52.454Z,7.90
2018-08-16T16:55:23.118Z,7.70
2018-08-16T16:57:53.846Z,7.97
2018-08-16T17:00:25.486Z,7.87
2018-08-16T17:02:56.162Z,8.03
2018-08-16T17:05:32.628Z,7.30
2018-08-16T17:08:03.469Z,8.17
2018-08-16T17:10:34.367Z,7.80
2018-08-16T17:13:05.325Z,7.80
2018-08-16T17:15:36.106Z,7.27
2018-08-16T17:18:10.070Z,7.73
2018-08-16T17:20:41.123Z,7.47
2018-08-16T17:23:12.006Z,7.90
2018-08-16T17:25:42.917Z,6.67
2018-08-16T17:28:14.321Z,7.30
2018-08-16T17:30:45.167Z,7.40
2018-08-16T17:33:16.017Z,6.97
2018-08-16T17:35:46.790Z,7.57
2018-08-16T17:38:17.614Z,7.07
2018-08-16T17:40:49.380Z,7.50
2018-08-16T17:43:30.053Z,7.67
2018-08-16T17:46:07.678Z,7.53
2018-08-16T17:48:38.840Z,7.93
2018-08-16T17:51:09.662Z,7.53
2018-08-16T17:53:40.632Z,7.80
2018-08-16T17:56:11.510Z,6.50
2018-08-16T17:58:42.352Z,7.03
2018-08-16T18:01:13.191Z,7.73
2018-08-16T18:03:44.683Z,6.90
2018-08-16T18:06:15.593Z,7.80
2018-08-16T18:08:46.400Z,7.70
2018-08-16T18:11:22.451Z,7.30
2018-08-16T18:13:53.470Z,8.00
2018-08-16T18:16:24.305Z,7.30
2018-08-16T18:18:55.308Z,7.50
2018-08-16T18:21:26.455Z,7.57
2018-08-16T18:23:57.385Z,8.10
2018-08-16T18:26:28.633Z,7.40
2018-08-16T18:28:59.459Z,7.63
2018-08-16T18:31:30.304Z,8.30
2018-08-16T18:34:01.184Z,8.13
2018-08-16T18:36:31.924Z,7.53
2018-08-16T18:39:02.609Z,7.53
2018-08-16T18:41:33.273Z,8.33
2018-08-16T18:44:04.037Z,7.50
2018-08-16T18:46:34.828Z,7.43
2018-08-16T18:49:05.540Z,7.43
2018-08-16T18:51:36.327Z,7.90
2018-08-16T18:54:07.070Z,8.30
2018-08-16T18:56:37.780Z,6.87
2018-08-16T18:59:08.516Z,7.07
2018-08-16T19:01:39.270Z,7.33
2018-08-16T19:04:10.124Z,7.80
2018-08-16T19:06:40.799Z,8.20
2018-08-16T19:09:11.586Z,7.60
2018-08-16T19:11:42.309Z,7.60
2018-08-16T19:14:13.118Z,7.80
2018-08-16T19:16:43.815Z,6.97
2018-08-16T19:19:14.590Z,7.37
2018-08-16T19:21:45.449Z,8.33
2018-08-16T19:24:16.290Z,7.43
2018-08-16T19:26:47.205Z,7.40
2018-08-16T19:29:17.937Z,7.60
2018-08-16T19:31:48.857Z,8.00
2018-08-16T19:34:19.661Z,7.47
2018-08-16T19:36:50.574Z,6.90
2018-08-16T19:39:21.300Z,7.27
2018-08-16T19:41:52.163Z,7.67
2018-08-16T19:44:22.969Z,8.03
2018-08-16T19:46:53.803Z,7.87
2018-08-16T19:49:24.616Z,7.17
2018-08-16T19:51:55.980Z,7.80
2018-08-16T19:54:26.682Z,7.70
2018-08-16T19:56:57.558Z,7.30
2018-08-16T19:59:28.336Z,8.70
2018-08-16T20:01:59.858Z,8.27
2018-08-16T20:04:31.919Z,8.00
2018-08-16T20:07:03.413Z,8.60
2018-08-16T20:09:34.223Z,9.20
2018-08-16T20:12:05.173Z,7.97
2018-08-16T20:14:35.884Z,7.60
2018-08-16T20:17:06.749Z,8.23
2018-08-16T20:19:37.567Z,8.00
2018-08-16T20:22:15.887Z,8.33
2018-08-16T20:24:47.325Z,7.70
2018-08-16T20:27:18.843Z,8.03
2018-08-16T20:29:49.627Z,8.00
2018-08-16T20:32:20.382Z,8.83
2018-08-16T20:34:51.092Z,6.97
2018-08-16T20:37:21.812Z,8.63
2018-08-16T20:39:52.655Z,8.33
2018-08-16T20:42:23.404Z,8.37
2018-08-16T20:44:54.129Z,8.17
2018-08-16T20:47:24.927Z,9.40
2018-08-16T20:49:55.696Z,8.87
2018-08-16T20:52:26.580Z,8.67
2018-08-16T20:54:57.272Z,8.87
2018-08-16T20:57:27.981Z,8.50
2018-08-16T20:59:58.648Z,8.30
2018-08-16T21:02:29.416Z,8.50
2018-08-16T21:05:00.083Z,8.80
2018-08-16T21:07:30.866Z,9.70
2018-08-16T21:10:01.614Z,10.20
2018-08-16T21:12:32.319Z,10.90
2018-08-16T21:15:03.066Z,9.67
2018-08-16T21:17:33.744Z,9.83
2018-08-16T21:20:04.981Z,9.47
2018-08-16T21:22:35.675Z,10.57
2018-08-16T21:25:07.537Z,10.23
2018-08-16T21:27:38.311Z,11.27
2018-08-16T21:30:09.058Z,11.10
2018-08-16T21:32:39.773Z,13.10
2018-08-16T21:35:10.557Z,10.77
2018-08-16T21:37:41.310Z,10.00
2018-08-16T21:40:12.060Z,9.90
2018-08-16T21:42:42.771Z,11.50
2018-08-16T21:45:13.485Z,11.40
2018-08-16T21:47:44.194Z,11.43
2018-08-16T21:50:15.010Z,12.97
2018-08-16T21:52:45.746Z,11.43
2018-08-16T21:55:16.475Z,11.17
2018-08-16T21:57:47.183Z,11.10
2018-08-16T22:00:52.883Z,10.80
2018-08-16T22:03:27.634Z,10.73
2018-08-16T22:06:09.220Z,10.93
2018-08-16T22:08:50.428Z,10.90
2018-08-16T22:11:21.146Z,9.93
2018-08-16T22:13:51.955Z,9.93
2018-08-16T22:16:22.744Z,11.10
2018-08-16T22:18:53.551Z,10.80
2018-08-16T22:21:24.393Z,11.40
2018-08-16T22:23:55.173Z,11.30
2018-08-16T22:26:25.963Z,10.90
2018-08-16T22:28:56.704Z,11.50
2018-08-16T22:31:27.557Z,11.00
2018-08-16T22:33:58.390Z,11.10
2018-08-16T22:36:29.100Z,11.87
2018-08-16T22:38:59.844Z,10.83
2018-08-16T22:41:30.549Z,11.47
2018-08-16T22:44:01.315Z,14.00
2018-08-16T22:46:32.040Z,13.80
2018-08-16T22:49:02.743Z,13.20
2018-08-16T22:51:33.510Z,12.27
2018-08-16T22:54:04.387Z,12.77
2018-08-16T22:56:35.135Z,13.50
2018-08-16T22:59:06.026Z,13.07
2018-08-16T23:01:36.780Z,13.40
2018-08-16T23:04:07.542Z,13.90
2018-08-16T23:06:38.277Z,13.67
2018-08-16T23:09:09.214Z,14.13
2018-08-16T23:11:39.975Z,13.20
2018-08-16T23:14:10.684Z,12.97
2018-08-16T23:16:41.444Z,13.33
2018-08-16T23:19:12.268Z,14.00
2018-08-16T23:21:42.975Z,12.90
2018-08-16T23:24:13.778Z,13.43
2018-08-16T23:26:44.523Z,13.60
2018-08-16T23:29:15.300Z,13.20
2018-08-16T23:31:45.998Z,13.03
2018-08-16T23:34:16.825Z,12.90
2018-08-16T23:36:47.667Z,11.80
2018-08-16T23:39:18.462Z,11.93
2018-08-16T23:41:49.205Z,12.40
2018-08-16T23:44:20.039Z,12.17
2018-08-16T23:46:50.796Z,12.67
2018-08-16T23:49:21.588Z,12.27
2018-08-16T23:51:52.324Z,12.47
2018-08-16T23:54:23.126Z,12.70
2018-08-16T23:56:53.855Z,13.33
2018-08-16T23:59:24.672Z,14.47
